Airfield :
LOGIN :

Register | Disclaimer

   EN    FR    IT 

 










Legend :    VFR   Marginal VFR   IFR   Intensive IFR   Very Intensive IFR
Visi :
Ceiling :
>= 8 km
>= 3000ft
5 to 8 km
1000 to 3000 ft
1500m to 5 km
500 to 1000 ft
800 to 1500m
200 to 500 ft
< 800m
< 200 ft
Symbols :   Thunderstorms  Fog  Heavy snow  Heavy precipitations  Wind > 20 kt
SIGMETs :     Misc.  Thunderstorms  Icing  Turbulence  Mountain Waves  Volcanic Ashes







- Airport Elevation : 375 ft
- IATA code : MST


EHBK - Maastricht Aachen

CURRENT METAR :
  • 191225Z AUTO 11005KT 070V150 9999 NSC 21/13 Q1005 TEMPO 4000 TSRA FEW030CB

EXPIRED METARs :
  • 191155Z AUTO VRB03KT 9999 NSC 20/13 Q1005 TEMPO 4000 SHRA TSRA FEW030CB
  • 191125Z AUTO 06004KT 320V130 9000 NSC 20/13 Q1005 TEMPO 4000 SHRA TSRA FEW030CB
  • 191055Z AUTO VRB03KT 9000 FEW024 20/13 Q1005 BECMG 8000
  • 191025Z AUTO VRB04KT 9000 FEW022 20/13 Q1005 NOSIG
  • 190955Z AUTO 01005KT 310V080 6000 FEW021 19/14 Q1005 NOSIG

TAF COR TAF EHBK
Valid from the 19 at 12:00 until the 20 at 18:00 UTC


191137Z 1912/2018 36007KT 8000 SCT030
TEMPO 1912/1921 03015G25KT 4000 SHRA TSRA FEW030CB
BECMG 1921/1924 3500 BR BKN005
PROB40 2000/2007 1200 BKN001
BECMG 2009/2012 29010KT 8000 NSW BKN018
PROB30
TEMPO 2014/2018 32015G25KT 4000 SHRA TSRA FEW025CB BKN030
No reported NOTAMs for that airfield.



MET'MAP, your aeronautical weather chart ! - Copyright ORBIFLY December 2007 - Disclaimer

ORBIFLY MET'MAP TEAM :

Programming & Development : Alexandra Zaïnal
Concept & Development : Baudouin d'Aumeries
Co-Development & Prog : Marc-Olivier Méhu
Technical & hardware support : Manuel Goepfert

Contact : metmap@orbifly.com




SOURCES & CREDITS :

   NOAA